sensor_id;sensor_type;location;lat;lon;timestamp;P1;P2;P0
46681;PMS5003;34101;53.430;-2.224;2022-09-30T00:00:15;20;18;
46681;PMS5003;34101;53.430;-2.224;2022-09-30T00:02:43;25;18;
46681;PMS5003;34101;53.430;-2.224;2022-09-30T00:05:11;17;16;
46681;PMS5003;34101;53.430;-2.224;2022-09-30T00:07:38;20;20;
46681;PMS5003;34101;53.430;-2.224;2022-09-30T00:10:05;19;19;
46681;PMS5003;34101;53.430;-2.224;2022-09-30T00:12:33;20;20;
46681;PMS5003;34101;53.430;-2.224;2022-09-30T00:15:00;25;21;
46681;PMS5003;34101;53.430;-2.224;2022-09-30T00:17:28;20;17;
46681;PMS5003;34101;53.430;-2.224;2022-09-30T00:19:55;23;22;
46681;PMS5003;34101;53.430;-2.224;2022-09-30T00:22:22;22;18;
46681;PMS5003;34101;53.430;-2.224;2022-09-30T00:24:49;17;17;
46681;PMS5003;34101;53.430;-2.224;2022-09-30T00:27:17;21;19;
46681;PMS5003;34101;53.430;-2.224;2022-09-30T00:29:46;20;17;
46681;PMS5003;34101;53.430;-2.224;2022-09-30T00:32:13;22;19;
46681;PMS5003;34101;53.430;-2.224;2022-09-30T00:34:41;21;20;
46681;PMS5003;34101;53.430;-2.224;2022-09-30T00:37:08;19;19;
46681;PMS5003;34101;53.430;-2.224;2022-09-30T00:39:38;14;14;
46681;PMS5003;34101;53.430;-2.224;2022-09-30T00:42:09;20;18;
46681;PMS5003;34101;53.430;-2.224;2022-09-30T00:44:48;20;20;
46681;PMS5003;34101;53.430;-2.224;2022-09-30T00:47:23;19;18;
46681;PMS5003;34101;53.430;-2.224;2022-09-30T00:50:04;18;18;
46681;PMS5003;34101;53.430;-2.224;2022-09-30T00:52:39;16;15;
46681;PMS5003;34101;53.430;-2.224;2022-09-30T00:55:09;15;15;
46681;PMS5003;34101;53.430;-2.224;2022-09-30T00:57:46;22;20;
46681;PMS5003;34101;53.430;-2.224;2022-09-30T01:00:13;15;15;
46681;PMS5003;34101;53.430;-2.224;2022-09-30T01:02:41;16;16;
46681;PMS5003;34101;53.430;-2.224;2022-09-30T01:05:08;16;16;
46681;PMS5003;34101;53.430;-2.224;2022-09-30T01:07:36;22;18;
46681;PMS5003;34101;53.430;-2.224;2022-09-30T01:10:05;17;15;
46681;PMS5003;34101;53.430;-2.224;2022-09-30T01:12:33;16;15;
46681;PMS5003;34101;53.430;-2.224;2022-09-30T01:15:00;15;14;
46681;PMS5003;34101;53.430;-2.224;2022-09-30T01:17:32;20;17;
46681;PMS5003;34101;53.430;-2.224;2022-09-30T01:21:17;18;16;
46681;PMS5003;34101;53.430;-2.224;2022-09-30T01:25:12;19;16;
46681;PMS5003;34101;53.430;-2.224;2022-09-30T01:28:11;20;17;
46681;PMS5003;34101;53.430;-2.224;2022-09-30T01:31:13;13;13;
46681;PMS5003;34101;53.430;-2.224;2022-09-30T01:33:51;16;15;
46681;PMS5003;34101;53.430;-2.224;2022-09-30T01:36:28;14;14;
46681;PMS5003;34101;53.430;-2.224;2022-09-30T01:39:12;17;17;
46681;PMS5003;34101;53.430;-2.224;2022-09-30T01:41:49;12;12;
46681;PMS5003;34101;53.430;-2.224;2022-09-30T01:44:25;11;11;
46681;PMS5003;34101;53.430;-2.224;2022-09-30T01:47:01;16;15;
46681;PMS5003;34101;53.430;-2.224;2022-09-30T01:49:37;19;17;
46681;PMS5003;34101;53.430;-2.224;2022-09-30T01:52:09;13;13;
46681;PMS5003;34101;53.430;-2.224;2022-09-30T01:54:41;17;16;
46681;PMS5003;34101;53.430;-2.224;2022-09-30T01:57:13;17;15;
46681;PMS5003;34101;53.430;-2.224;2022-09-30T01:59:53;15;15;
46681;PMS5003;34101;53.430;-2.224;2022-09-30T02:02:25;13;13;
46681;PMS5003;34101;53.430;-2.224;2022-09-30T02:04:56;15;13;
46681;PMS5003;34101;53.430;-2.224;2022-09-30T02:07:29;15;13;
46681;PMS5003;34101;53.430;-2.224;2022-09-30T02:10:02;17;16;
46681;PMS5003;34101;53.430;-2.224;2022-09-30T02:12:37;10;10;
46681;PMS5003;34101;53.430;-2.224;2022-09-30T02:15:09;11;11;
46681;PMS5003;34101;53.430;-2.224;2022-09-30T02:17:41;15;12;
46681;PMS5003;34101;53.430;-2.224;2022-09-30T02:20:12;13;13;
46681;PMS5003;34101;53.430;-2.224;2022-09-30T02:22:44;12;12;
46681;PMS5003;34101;53.430;-2.224;2022-09-30T02:25:16;18;13;
46681;PMS5003;34101;53.430;-2.224;2022-09-30T02:27:49;16;12;
46681;PMS5003;34101;53.430;-2.224;2022-09-30T02:30:21;16;16;
46681;PMS5003;34101;53.430;-2.224;2022-09-30T02:32:50;13;11;
46681;PMS5003;34101;53.430;-2.224;2022-09-30T02:35:23;12;12;
46681;PMS5003;34101;53.430;-2.224;2022-09-30T02:37:56;12;12;
46681;PMS5003;34101;53.430;-2.224;2022-09-30T02:40:27;11;10;
46681;PMS5003;34101;53.430;-2.224;2022-09-30T02:43:00;13;13;
46681;PMS5003;34101;53.430;-2.224;2022-09-30T02:45:27;10;10;
46681;PMS5003;34101;53.430;-2.224;2022-09-30T02:48:03;15;15;
46681;PMS5003;34101;53.430;-2.224;2022-09-30T02:50:42;13;12;
46681;PMS5003;34101;53.430;-2.224;2022-09-30T02:53:16;13;13;
46681;PMS5003;34101;53.430;-2.224;2022-09-30T02:55:55;13;12;
46681;PMS5003;34101;53.430;-2.224;2022-09-30T02:58:34;13;11;
46681;PMS5003;34101;53.430;-2.224;2022-09-30T03:01:04;17;15;
46681;PMS5003;34101;53.430;-2.224;2022-09-30T03:03:33;14;12;
46681;PMS5003;34101;53.430;-2.224;2022-09-30T03:06:04;15;14;
46681;PMS5003;34101;53.430;-2.224;2022-09-30T03:08:32;13;11;
46681;PMS5003;34101;53.430;-2.224;2022-09-30T03:11:00;16;15;
46681;PMS5003;34101;53.430;-2.224;2022-09-30T03:13:36;13;13;
46681;PMS5003;34101;53.430;-2.224;2022-09-30T03:16:42;10;10;
46681;PMS5003;34101;53.430;-2.224;2022-09-30T03:19:37;13;11;
46681;PMS5003;34101;53.430;-2.224;2022-09-30T03:22:22;10;10;
46681;PMS5003;34101;53.430;-2.224;2022-09-30T03:25:04;13;12;
46681;PMS5003;34101;53.430;-2.224;2022-09-30T03:27:43;12;12;
46681;PMS5003;34101;53.430;-2.224;2022-09-30T03:30:21;15;13;
46681;PMS5003;34101;53.430;-2.224;2022-09-30T03:32:56;18;12;
46681;PMS5003;34101;53.430;-2.224;2022-09-30T03:35:36;13;13;
46681;PMS5003;34101;53.430;-2.224;2022-09-30T03:38:13;14;14;
46681;PMS5003;34101;53.430;-2.224;2022-09-30T03:40:52;12;12;
46681;PMS5003;34101;53.430;-2.224;2022-09-30T03:43:28;12;12;
46681;PMS5003;34101;53.430;-2.224;2022-09-30T03:46:00;18;16;
46681;PMS5003;34101;53.430;-2.224;2022-09-30T03:48:35;14;13;
46681;PMS5003;34101;53.430;-2.224;2022-09-30T03:51:05;14;14;
46681;PMS5003;34101;53.430;-2.224;2022-09-30T03:53:37;15;15;
46681;PMS5003;34101;53.430;-2.224;2022-09-30T03:56:06;14;13;
46681;PMS5003;34101;53.430;-2.224;2022-09-30T03:58:35;12;12;
46681;PMS5003;34101;53.430;-2.224;2022-09-30T04:01:07;19;15;
46681;PMS5003;34101;53.430;-2.224;2022-09-30T04:03:42;15;15;
46681;PMS5003;34101;53.430;-2.224;2022-09-30T04:06:10;11;11;
46681;PMS5003;34101;53.430;-2.224;2022-09-30T04:08:39;18;17;
46681;PMS5003;34101;53.430;-2.224;2022-09-30T04:11:06;14;14;
46681;PMS5003;34101;53.430;-2.224;2022-09-30T04:13:36;16;15;
46681;PMS5003;34101;53.430;-2.224;2022-09-30T04:16:04;15;15;
46681;PMS5003;34101;53.430;-2.224;2022-09-30T04:18:33;13;13;
46681;PMS5003;34101;53.430;-2.224;2022-09-30T04:21:03;17;16;
46681;PMS5003;34101;53.430;-2.224;2022-09-30T04:23:33;12;12;
46681;PMS5003;34101;53.430;-2.224;2022-09-30T04:26:01;14;14;
46681;PMS5003;34101;53.430;-2.224;2022-09-30T04:28:30;15;15;
46681;PMS5003;34101;53.430;-2.224;2022-09-30T04:30:58;16;14;
46681;PMS5003;34101;53.430;-2.224;2022-09-30T04:33:26;18;15;
46681;PMS5003;34101;53.430;-2.224;2022-09-30T04:35:54;19;18;
46681;PMS5003;34101;53.430;-2.224;2022-09-30T04:38:23;13;12;
46681;PMS5003;34101;53.430;-2.224;2022-09-30T04:40:52;16;14;
46681;PMS5003;34101;53.430;-2.224;2022-09-30T04:43:20;12;12;
46681;PMS5003;34101;53.430;-2.224;2022-09-30T04:45:47;14;14;
46681;PMS5003;34101;53.430;-2.224;2022-09-30T04:48:15;15;15;
46681;PMS5003;34101;53.430;-2.224;2022-09-30T04:50:42;12;12;
46681;PMS5003;34101;53.430;-2.224;2022-09-30T04:53:11;15;14;
46681;PMS5003;34101;53.430;-2.224;2022-09-30T04:55:39;12;12;
46681;PMS5003;34101;53.430;-2.224;2022-09-30T04:58:06;15;15;
46681;PMS5003;34101;53.430;-2.224;2022-09-30T05:00:35;16;15;
46681;PMS5003;34101;53.430;-2.224;2022-09-30T05:03:02;11;11;
46681;PMS5003;34101;53.430;-2.224;2022-09-30T05:05:31;13;13;
46681;PMS5003;34101;53.430;-2.224;2022-09-30T05:07:59;16;12;
46681;PMS5003;34101;53.430;-2.224;2022-09-30T05:10:27;15;14;
46681;PMS5003;34101;53.430;-2.224;2022-09-30T05:12:55;12;12;
46681;PMS5003;34101;53.430;-2.224;2022-09-30T05:15:23;12;12;
46681;PMS5003;34101;53.430;-2.224;2022-09-30T05:17:51;11;11;
46681;PMS5003;34101;53.430;-2.224;2022-09-30T05:20:19;12;12;
46681;PMS5003;34101;53.430;-2.224;2022-09-30T05:22:46;14;12;
46681;PMS5003;34101;53.430;-2.224;2022-09-30T05:25:19;11;10;
46681;PMS5003;34101;53.430;-2.224;2022-09-30T05:27:47;15;13;
46681;PMS5003;34101;53.430;-2.224;2022-09-30T05:30:14;11;11;
46681;PMS5003;34101;53.430;-2.224;2022-09-30T05:32:42;13;13;
46681;PMS5003;34101;53.430;-2.224;2022-09-30T05:35:09;9;9;
46681;PMS5003;34101;53.430;-2.224;2022-09-30T05:37:37;10;9;
46681;PMS5003;34101;53.430;-2.224;2022-09-30T05:40:05;9;9;
46681;PMS5003;34101;53.430;-2.224;2022-09-30T05:42:33;12;11;
46681;PMS5003;34101;53.430;-2.224;2022-09-30T05:45:00;10;8;
46681;PMS5003;34101;53.430;-2.224;2022-09-30T05:47:28;9;7;
46681;PMS5003;34101;53.430;-2.224;2022-09-30T05:49:55;11;11;
46681;PMS5003;34101;53.430;-2.224;2022-09-30T05:52:22;9;8;
46681;PMS5003;34101;53.430;-2.224;2022-09-30T05:54:50;9;9;
46681;PMS5003;34101;53.430;-2.224;2022-09-30T05:57:17;10;10;
46681;PMS5003;34101;53.430;-2.224;2022-09-30T05:59:44;13;13;
46681;PMS5003;34101;53.430;-2.224;2022-09-30T06:02:12;10;10;
46681;PMS5003;34101;53.430;-2.224;2022-09-30T06:04:39;12;11;
46681;PMS5003;34101;53.430;-2.224;2022-09-30T06:07:07;12;10;
46681;PMS5003;34101;53.430;-2.224;2022-09-30T06:09:34;15;15;
46681;PMS5003;34101;53.430;-2.224;2022-09-30T06:12:02;11;10;
46681;PMS5003;34101;53.430;-2.224;2022-09-30T06:14:31;12;10;
46681;PMS5003;34101;53.430;-2.224;2022-09-30T06:16:58;11;11;
46681;PMS5003;34101;53.430;-2.224;2022-09-30T06:19:26;12;10;
46681;PMS5003;34101;53.430;-2.224;2022-09-30T06:21:54;11;11;
46681;PMS5003;34101;53.430;-2.224;2022-09-30T06:24:21;13;12;
46681;PMS5003;34101;53.430;-2.224;2022-09-30T06:26:48;12;11;
46681;PMS5003;34101;53.430;-2.224;2022-09-30T06:29:15;13;13;
46681;PMS5003;34101;53.430;-2.224;2022-09-30T06:31:45;15;15;
46681;PMS5003;34101;53.430;-2.224;2022-09-30T06:34:12;15;13;
46681;PMS5003;34101;53.430;-2.224;2022-09-30T06:36:40;13;11;
46681;PMS5003;34101;53.430;-2.224;2022-09-30T06:39:07;10;10;
46681;PMS5003;34101;53.430;-2.224;2022-09-30T06:41:35;12;12;
46681;PMS5003;34101;53.430;-2.224;2022-09-30T06:44:03;17;13;
46681;PMS5003;34101;53.430;-2.224;2022-09-30T06:46:30;15;12;
46681;PMS5003;34101;53.430;-2.224;2022-09-30T06:48:58;16;16;
46681;PMS5003;34101;53.430;-2.224;2022-09-30T06:51:25;19;15;
46681;PMS5003;34101;53.430;-2.224;2022-09-30T06:53:54;15;15;
46681;PMS5003;34101;53.430;-2.224;2022-09-30T06:56:21;14;12;
46681;PMS5003;34101;53.430;-2.224;2022-09-30T06:58:49;14;14;
46681;PMS5003;34101;53.430;-2.224;2022-09-30T07:01:17;16;14;
46681;PMS5003;34101;53.430;-2.224;2022-09-30T07:03:45;15;12;
46681;PMS5003;34101;53.430;-2.224;2022-09-30T07:06:13;14;13;
46681;PMS5003;34101;53.430;-2.224;2022-09-30T07:08:40;16;13;
46681;PMS5003;34101;53.430;-2.224;2022-09-30T07:11:08;15;13;
46681;PMS5003;34101;53.430;-2.224;2022-09-30T07:13:37;18;16;
46681;PMS5003;34101;53.430;-2.224;2022-09-30T07:16:05;18;15;
46681;PMS5003;34101;53.430;-2.224;2022-09-30T07:18:32;17;14;
46681;PMS5003;34101;53.430;-2.224;2022-09-30T07:20:59;15;14;
46681;PMS5003;34101;53.430;-2.224;2022-09-30T07:23:26;16;14;
46681;PMS5003;34101;53.430;-2.224;2022-09-30T07:25:54;17;16;
46681;PMS5003;34101;53.430;-2.224;2022-09-30T07:28:23;18;17;
46681;PMS5003;34101;53.430;-2.224;2022-09-30T07:30:51;17;17;
46681;PMS5003;34101;53.430;-2.224;2022-09-30T07:33:18;19;17;
46681;PMS5003;34101;53.430;-2.224;2022-09-30T07:35:49;17;17;
46681;PMS5003;34101;53.430;-2.224;2022-09-30T07:38:17;18;17;
46681;PMS5003;34101;53.430;-2.224;2022-09-30T07:40:53;20;20;
46681;PMS5003;34101;53.430;-2.224;2022-09-30T07:43:22;18;18;
46681;PMS5003;34101;53.430;-2.224;2022-09-30T07:45:50;19;19;
46681;PMS5003;34101;53.430;-2.224;2022-09-30T07:48:18;16;16;
46681;PMS5003;34101;53.430;-2.224;2022-09-30T07:50:45;20;17;
46681;PMS5003;34101;53.430;-2.224;2022-09-30T07:53:13;18;18;
46681;PMS5003;34101;53.430;-2.224;2022-09-30T07:55:40;15;14;
46681;PMS5003;34101;53.430;-2.224;2022-09-30T07:58:07;17;17;
46681;PMS5003;34101;53.430;-2.224;2022-09-30T08:00:34;18;18;
46681;PMS5003;34101;53.430;-2.224;2022-09-30T08:03:02;16;16;
46681;PMS5003;34101;53.430;-2.224;2022-09-30T08:05:30;18;17;
46681;PMS5003;34101;53.430;-2.224;2022-09-30T08:07:57;18;17;
46681;PMS5003;34101;53.430;-2.224;2022-09-30T08:10:24;15;15;
46681;PMS5003;34101;53.430;-2.224;2022-09-30T08:12:52;24;20;
46681;PMS5003;34101;53.430;-2.224;2022-09-30T08:15:19;16;16;
46681;PMS5003;34101;53.430;-2.224;2022-09-30T08:17:46;20;19;
46681;PMS5003;34101;53.430;-2.224;2022-09-30T08:20:13;20;18;
46681;PMS5003;34101;53.430;-2.224;2022-09-30T08:22:41;17;16;
46681;PMS5003;34101;53.430;-2.224;2022-09-30T08:25:08;18;18;
46681;PMS5003;34101;53.430;-2.224;2022-09-30T08:27:35;17;16;
46681;PMS5003;34101;53.430;-2.224;2022-09-30T08:30:02;16;16;
46681;PMS5003;34101;53.430;-2.224;2022-09-30T08:32:30;20;20;
46681;PMS5003;34101;53.430;-2.224;2022-09-30T08:34:58;18;18;
46681;PMS5003;34101;53.430;-2.224;2022-09-30T08:37:25;24;22;
46681;PMS5003;34101;53.430;-2.224;2022-09-30T08:39:52;21;18;
46681;PMS5003;34101;53.430;-2.224;2022-09-30T08:42:24;16;16;
46681;PMS5003;34101;53.430;-2.224;2022-09-30T08:45:02;18;18;
46681;PMS5003;34101;53.430;-2.224;2022-09-30T08:47:42;25;25;
46681;PMS5003;34101;53.430;-2.224;2022-09-30T08:50:18;22;20;
46681;PMS5003;34101;53.430;-2.224;2022-09-30T08:52:56;20;18;
46681;PMS5003;34101;53.430;-2.224;2022-09-30T08:55:29;21;21;
46681;PMS5003;34101;53.430;-2.224;2022-09-30T08:58:04;22;21;
46681;PMS5003;34101;53.430;-2.224;2022-09-30T09:00:36;22;20;
46681;PMS5003;34101;53.430;-2.224;2022-09-30T09:03:11;26;21;
46681;PMS5003;34101;53.430;-2.224;2022-09-30T09:05:42;21;20;
46681;PMS5003;34101;53.430;-2.224;2022-09-30T09:08:22;24;23;
46681;PMS5003;34101;53.430;-2.224;2022-09-30T09:10:56;19;19;
46681;PMS5003;34101;53.430;-2.224;2022-09-30T09:13:33;22;19;
46681;PMS5003;34101;53.430;-2.224;2022-09-30T09:16:11;21;21;
46681;PMS5003;34101;53.430;-2.224;2022-09-30T09:18:47;19;19;
46681;PMS5003;34101;53.430;-2.224;2022-09-30T09:21:28;20;19;
46681;PMS5003;34101;53.430;-2.224;2022-09-30T09:24:10;20;20;
46681;PMS5003;34101;53.430;-2.224;2022-09-30T09:26:41;22;20;
46681;PMS5003;34101;53.430;-2.224;2022-09-30T09:29:16;18;18;
46681;PMS5003;34101;53.430;-2.224;2022-09-30T09:31:53;18;18;
46681;PMS5003;34101;53.430;-2.224;2022-09-30T09:34:22;21;19;
46681;PMS5003;34101;53.430;-2.224;2022-09-30T09:36:55;18;17;
46681;PMS5003;34101;53.430;-2.224;2022-09-30T09:39:37;15;15;
46681;PMS5003;34101;53.430;-2.224;2022-09-30T09:42:21;18;18;
46681;PMS5003;34101;53.430;-2.224;2022-09-30T09:45:01;19;18;
46681;PMS5003;34101;53.430;-2.224;2022-09-30T09:47:30;18;16;
46681;PMS5003;34101;53.430;-2.224;2022-09-30T09:49:58;18;18;
46681;PMS5003;34101;53.430;-2.224;2022-09-30T09:52:43;16;16;
46681;PMS5003;34101;53.430;-2.224;2022-09-30T09:55:23;16;16;
46681;PMS5003;34101;53.430;-2.224;2022-09-30T09:58:06;19;19;
46681;PMS5003;34101;53.430;-2.224;2022-09-30T10:00:36;15;15;
46681;PMS5003;34101;53.430;-2.224;2022-09-30T10:03:04;14;14;
46681;PMS5003;34101;53.430;-2.224;2022-09-30T10:05:37;13;13;
46681;PMS5003;34101;53.430;-2.224;2022-09-30T10:08:09;15;15;
46681;PMS5003;34101;53.430;-2.224;2022-09-30T10:10:43;16;14;
46681;PMS5003;34101;53.430;-2.224;2022-09-30T10:13:14;11;11;
46681;PMS5003;34101;53.430;-2.224;2022-09-30T10:15:44;16;12;
46681;PMS5003;34101;53.430;-2.224;2022-09-30T10:18:17;10;10;
46681;PMS5003;34101;53.430;-2.224;2022-09-30T10:20:49;11;11;
46681;PMS5003;34101;53.430;-2.224;2022-09-30T10:23:20;12;12;
46681;PMS5003;34101;53.430;-2.224;2022-09-30T10:25:57;11;11;
46681;PMS5003;34101;53.430;-2.224;2022-09-30T10:28:28;13;12;
46681;PMS5003;34101;53.430;-2.224;2022-09-30T10:30:57;14;14;
46681;PMS5003;34101;53.430;-2.224;2022-09-30T10:33:29;13;12;
46681;PMS5003;34101;53.430;-2.224;2022-09-30T10:36:08;13;12;
46681;PMS5003;34101;53.430;-2.224;2022-09-30T10:38:50;14;10;
46681;PMS5003;34101;53.430;-2.224;2022-09-30T10:41:24;14;14;
46681;PMS5003;34101;53.430;-2.224;2022-09-30T10:43:55;16;14;
46681;PMS5003;34101;53.430;-2.224;2022-09-30T10:46:26;16;15;
46681;PMS5003;34101;53.430;-2.224;2022-09-30T10:48:57;15;13;
46681;PMS5003;34101;53.430;-2.224;2022-09-30T10:51:26;17;17;
46681;PMS5003;34101;53.430;-2.224;2022-09-30T10:53:55;15;14;
46681;PMS5003;34101;53.430;-2.224;2022-09-30T10:56:40;17;17;
46681;PMS5003;34101;53.430;-2.224;2022-09-30T10:59:12;15;14;
46681;PMS5003;34101;53.430;-2.224;2022-09-30T11:01:50;18;17;
46681;PMS5003;34101;53.430;-2.224;2022-09-30T11:04:23;17;17;
46681;PMS5003;34101;53.430;-2.224;2022-09-30T11:06:58;15;15;
46681;PMS5003;34101;53.430;-2.224;2022-09-30T11:09:35;17;16;
46681;PMS5003;34101;53.430;-2.224;2022-09-30T11:12:12;16;16;
46681;PMS5003;34101;53.430;-2.224;2022-09-30T11:14:47;20;20;
46681;PMS5003;34101;53.430;-2.224;2022-09-30T11:17:24;18;18;
46681;PMS5003;34101;53.430;-2.224;2022-09-30T11:20:00;18;18;
46681;PMS5003;34101;53.430;-2.224;2022-09-30T11:22:35;18;18;
46681;PMS5003;34101;53.430;-2.224;2022-09-30T11:25:11;15;15;
46681;PMS5003;34101;53.430;-2.224;2022-09-30T11:27:43;18;18;
46681;PMS5003;34101;53.430;-2.224;2022-09-30T11:30:22;24;21;
46681;PMS5003;34101;53.430;-2.224;2022-09-30T11:33:01;21;19;
46681;PMS5003;34101;53.430;-2.224;2022-09-30T11:35:47;19;19;
46681;PMS5003;34101;53.430;-2.224;2022-09-30T11:38:32;20;19;
46681;PMS5003;34101;53.430;-2.224;2022-09-30T11:41:13;15;15;
46681;PMS5003;34101;53.430;-2.224;2022-09-30T11:43:55;19;16;
46681;PMS5003;34101;53.430;-2.224;2022-09-30T11:46:35;15;15;
46681;PMS5003;34101;53.430;-2.224;2022-09-30T11:49:22;17;17;
46681;PMS5003;34101;53.430;-2.224;2022-09-30T11:52:03;20;19;
46681;PMS5003;34101;53.430;-2.224;2022-09-30T11:54:41;21;21;
46681;PMS5003;34101;53.430;-2.224;2022-09-30T11:57:21;20;18;
46681;PMS5003;34101;53.430;-2.224;2022-09-30T11:59:58;17;16;
46681;PMS5003;34101;53.430;-2.224;2022-09-30T12:02:38;20;20;
46681;PMS5003;34101;53.430;-2.224;2022-09-30T12:05:09;21;20;
46681;PMS5003;34101;53.430;-2.224;2022-09-30T12:07:42;18;18;
46681;PMS5003;34101;53.430;-2.224;2022-09-30T12:10:15;20;19;
46681;PMS5003;34101;53.430;-2.224;2022-09-30T12:12:45;19;19;
46681;PMS5003;34101;53.430;-2.224;2022-09-30T12:15:16;19;18;
46681;PMS5003;34101;53.430;-2.224;2022-09-30T12:17:46;19;18;
46681;PMS5003;34101;53.430;-2.224;2022-09-30T12:20:17;20;20;
46681;PMS5003;34101;53.430;-2.224;2022-09-30T12:22:49;16;16;
46681;PMS5003;34101;53.430;-2.224;2022-09-30T12:25:19;16;13;
46681;PMS5003;34101;53.430;-2.224;2022-09-30T12:27:49;14;13;
46681;PMS5003;34101;53.430;-2.224;2022-09-30T12:30:20;13;13;
46681;PMS5003;34101;53.430;-2.224;2022-09-30T12:32:56;14;14;
46681;PMS5003;34101;53.430;-2.224;2022-09-30T12:35:47;12;12;
46681;PMS5003;34101;53.430;-2.224;2022-09-30T12:38:31;12;12;
46681;PMS5003;34101;53.430;-2.224;2022-09-30T12:41:16;16;13;
46681;PMS5003;34101;53.430;-2.224;2022-09-30T12:44:00;15;15;
46681;PMS5003;34101;53.430;-2.224;2022-09-30T12:46:55;16;16;
46681;PMS5003;34101;53.430;-2.224;2022-09-30T12:49:37;15;15;
46681;PMS5003;34101;53.430;-2.224;2022-09-30T12:52:11;14;14;
46681;PMS5003;34101;53.430;-2.224;2022-09-30T12:54:41;14;14;
46681;PMS5003;34101;53.430;-2.224;2022-09-30T12:57:19;13;13;
46681;PMS5003;34101;53.430;-2.224;2022-09-30T12:59:52;13;13;
46681;PMS5003;34101;53.430;-2.224;2022-09-30T13:02:26;12;12;
46681;PMS5003;34101;53.430;-2.224;2022-09-30T13:05:30;13;13;
46681;PMS5003;34101;53.430;-2.224;2022-09-30T13:09:04;12;12;
46681;PMS5003;34101;53.430;-2.224;2022-09-30T13:11:43;12;11;
46681;PMS5003;34101;53.430;-2.224;2022-09-30T13:14:17;11;10;
46681;PMS5003;34101;53.430;-2.224;2022-09-30T13:17:27;9;9;
46681;PMS5003;34101;53.430;-2.224;2022-09-30T13:19:54;12;10;
46681;PMS5003;34101;53.430;-2.224;2022-09-30T13:22:41;7;7;
46681;PMS5003;34101;53.430;-2.224;2022-09-30T13:25:11;8;8;
46681;PMS5003;34101;53.430;-2.224;2022-09-30T13:27:42;8;8;
46681;PMS5003;34101;53.430;-2.224;2022-09-30T13:30:43;9;9;
46681;PMS5003;34101;53.430;-2.224;2022-09-30T13:33:28;8;8;
46681;PMS5003;34101;53.430;-2.224;2022-09-30T13:36:26;9;9;
46681;PMS5003;34101;53.430;-2.224;2022-09-30T13:39:28;5;5;
46681;PMS5003;34101;53.430;-2.224;2022-09-30T13:42:03;8;8;
46681;PMS5003;34101;53.430;-2.224;2022-09-30T13:44:39;6;6;
46681;PMS5003;34101;53.430;-2.224;2022-09-30T13:47:22;5;5;
46681;PMS5003;34101;53.430;-2.224;2022-09-30T13:49:56;5;5;
46681;PMS5003;34101;53.430;-2.224;2022-09-30T13:52:30;5;5;
46681;PMS5003;34101;53.430;-2.224;2022-09-30T13:55:02;6;6;
46681;PMS5003;34101;53.430;-2.224;2022-09-30T13:57:36;5;5;
46681;PMS5003;34101;53.430;-2.224;2022-09-30T14:00:10;7;7;
46681;PMS5003;34101;53.430;-2.224;2022-09-30T14:02:57;6;6;
46681;PMS5003;34101;53.430;-2.224;2022-09-30T14:05:45;3;3;
46681;PMS5003;34101;53.430;-2.224;2022-09-30T14:08:25;7;6;
46681;PMS5003;34101;53.430;-2.224;2022-09-30T14:11:25;2;2;
46681;PMS5003;34101;53.430;-2.224;2022-09-30T14:14:06;5;4;
46681;PMS5003;34101;53.430;-2.224;2022-09-30T14:17:00;5;5;
46681;PMS5003;34101;53.430;-2.224;2022-09-30T14:19:43;3;3;
46681;PMS5003;34101;53.430;-2.224;2022-09-30T14:22:22;3;3;
46681;PMS5003;34101;53.430;-2.224;2022-09-30T14:24:52;2;1;
46681;PMS5003;34101;53.430;-2.224;2022-09-30T14:27:23;4;4;
46681;PMS5003;34101;53.430;-2.224;2022-09-30T14:30:03;3;3;
46681;PMS5003;34101;53.430;-2.224;2022-09-30T14:32:39;5;4;
46681;PMS5003;34101;53.430;-2.224;2022-09-30T14:35:11;4;4;
46681;PMS5003;34101;53.430;-2.224;2022-09-30T14:37:44;3;3;
46681;PMS5003;34101;53.430;-2.224;2022-09-30T14:40:16;1;1;
46681;PMS5003;34101;53.430;-2.224;2022-09-30T14:42:45;3;3;
46681;PMS5003;34101;53.430;-2.224;2022-09-30T14:45:17;2;2;
46681;PMS5003;34101;53.430;-2.224;2022-09-30T14:47:49;4;4;
46681;PMS5003;34101;53.430;-2.224;2022-09-30T14:50:20;3;3;
46681;PMS5003;34101;53.430;-2.224;2022-09-30T14:52:50;1;1;
46681;PMS5003;34101;53.430;-2.224;2022-09-30T14:55:19;2;2;
46681;PMS5003;34101;53.430;-2.224;2022-09-30T14:57:50;2;2;
46681;PMS5003;34101;53.430;-2.224;2022-09-30T15:00:19;2;2;
46681;PMS5003;34101;53.430;-2.224;2022-09-30T15:02:50;2;2;
46681;PMS5003;34101;53.430;-2.224;2022-09-30T15:05:17;2;2;
46681;PMS5003;34101;53.430;-2.224;2022-09-30T15:07:44;4;2;
46681;PMS5003;34101;53.430;-2.224;2022-09-30T15:10:16;1;1;
46681;PMS5003;34101;53.430;-2.224;2022-09-30T15:12:46;4;3;
46681;PMS5003;34101;53.430;-2.224;2022-09-30T15:15:46;5;4;
46681;PMS5003;34101;53.430;-2.224;2022-09-30T15:18:30;3;3;
46681;PMS5003;34101;53.430;-2.224;2022-09-30T15:21:01;3;3;
46681;PMS5003;34101;53.430;-2.224;2022-09-30T15:23:33;3;3;
46681;PMS5003;34101;53.430;-2.224;2022-09-30T15:26:04;3;3;
46681;PMS5003;34101;53.430;-2.224;2022-09-30T15:28:31;3;3;
46681;PMS5003;34101;53.430;-2.224;2022-09-30T15:30:59;2;2;
46681;PMS5003;34101;53.430;-2.224;2022-09-30T15:33:26;3;3;
46681;PMS5003;34101;53.430;-2.224;2022-09-30T15:36:03;3;3;
46681;PMS5003;34101;53.430;-2.224;2022-09-30T15:38:32;3;3;
46681;PMS5003;34101;53.430;-2.224;2022-09-30T15:41:03;2;2;
46681;PMS5003;34101;53.430;-2.224;2022-09-30T15:43:33;1;1;
46681;PMS5003;34101;53.430;-2.224;2022-09-30T15:46:19;3;2;
46681;PMS5003;34101;53.430;-2.224;2022-09-30T15:48:51;4;2;
46681;PMS5003;34101;53.430;-2.224;2022-09-30T15:51:28;5;2;
46681;PMS5003;34101;53.430;-2.224;2022-09-30T15:53:59;2;2;
46681;PMS5003;34101;53.430;-2.224;2022-09-30T15:56:31;2;2;
46681;PMS5003;34101;53.430;-2.224;2022-09-30T15:59:00;2;2;
46681;PMS5003;34101;53.430;-2.224;2022-09-30T16:01:34;1;1;
46681;PMS5003;34101;53.430;-2.224;2022-09-30T16:04:06;3;3;
46681;PMS5003;34101;53.430;-2.224;2022-09-30T16:06:36;2;2;
46681;PMS5003;34101;53.430;-2.224;2022-09-30T16:09:19;1;1;
46681;PMS5003;34101;53.430;-2.224;2022-09-30T16:12:00;3;3;
46681;PMS5003;34101;53.430;-2.224;2022-09-30T16:14:32;3;3;
46681;PMS5003;34101;53.430;-2.224;2022-09-30T16:17:05;3;3;
46681;PMS5003;34101;53.430;-2.224;2022-09-30T16:19:40;2;2;
46681;PMS5003;34101;53.430;-2.224;2022-09-30T16:22:18;6;5;
46681;PMS5003;34101;53.430;-2.224;2022-09-30T16:25:03;2;1;
46681;PMS5003;34101;53.430;-2.224;2022-09-30T16:27:39;2;2;
46681;PMS5003;34101;53.430;-2.224;2022-09-30T16:30:11;2;2;
46681;PMS5003;34101;53.430;-2.224;2022-09-30T16:32:40;2;2;
46681;PMS5003;34101;53.430;-2.224;2022-09-30T16:35:14;3;2;
46681;PMS5003;34101;53.430;-2.224;2022-09-30T16:37:43;5;3;
46681;PMS5003;34101;53.430;-2.224;2022-09-30T16:40:15;3;3;
46681;PMS5003;34101;53.430;-2.224;2022-09-30T16:42:45;1;1;
46681;PMS5003;34101;53.430;-2.224;2022-09-30T16:45:13;2;2;
46681;PMS5003;34101;53.430;-2.224;2022-09-30T16:47:41;1;1;
46681;PMS5003;34101;53.430;-2.224;2022-09-30T16:50:14;3;3;